createdAt,value
2022-08-04T00:00:45.943Z,6.28
2022-08-04T00:03:19.349Z,6.10
2022-08-04T00:06:01.000Z,6.10
2022-08-04T00:08:42.130Z,6.38
2022-08-04T00:11:17.216Z,6.30
2022-08-04T00:14:02.765Z,6.28
2022-08-04T00:16:37.788Z,6.53
2022-08-04T00:19:13.289Z,6.22
2022-08-04T00:21:48.334Z,6.55
2022-08-04T00:24:17.957Z,5.90
2022-08-04T00:26:46.864Z,6.55
2022-08-04T00:29:16.719Z,6.40
2022-08-04T00:31:56.961Z,5.45
2022-08-04T00:34:28.100Z,5.57
2022-08-04T00:36:57.787Z,6.13
2022-08-04T00:39:26.808Z,5.60
2022-08-04T00:42:20.924Z,5.40
2022-08-04T00:45:01.448Z,5.53
2022-08-04T00:47:44.588Z,6.13
2022-08-04T00:50:17.785Z,5.20
2022-08-04T00:53:07.389Z,4.47
2022-08-04T00:55:56.216Z,4.88
2022-08-04T00:58:34.512Z,5.45
2022-08-04T01:01:07.228Z,4.70
2022-08-04T01:03:51.257Z,5.20
2022-08-04T01:06:35.763Z,3.88
2022-08-04T01:09:21.322Z,3.90
2022-08-04T01:12:19.373Z,3.67
2022-08-04T01:15:04.233Z,8.07
2022-08-04T01:17:45.124Z,5.03
2022-08-04T01:20:21.911Z,5.97
2022-08-04T01:23:35.881Z,3.95
2022-08-04T01:26:44.040Z,4.35
2022-08-04T01:29:12.991Z,4.30
2022-08-04T01:32:02.555Z,6.60
2022-08-04T01:34:36.353Z,6.32
2022-08-04T01:37:12.259Z,3.08
2022-08-04T01:39:50.862Z,8.00
2022-08-04T01:42:31.722Z,4.47
2022-08-04T01:45:05.281Z,3.75
2022-08-04T01:47:37.224Z,6.28
2022-08-04T01:50:08.600Z,7.65
2022-08-04T01:52:38.814Z,4.25
2022-08-04T01:55:10.281Z,7.05
2022-08-04T01:57:43.026Z,4.80
2022-08-04T02:00:14.615Z,4.32
2022-08-04T02:02:43.065Z,4.90
2022-08-04T02:05:12.507Z,4.88
2022-08-04T02:08:14.145Z,3.80
2022-08-04T02:10:59.322Z,4.13
2022-08-04T02:13:33.928Z,3.53
2022-08-04T02:16:07.606Z,3.90
2022-08-04T02:18:54.784Z,3.45
2022-08-04T02:21:26.968Z,4.85
2022-08-04T02:24:15.828Z,4.82
2022-08-04T02:26:49.173Z,4.40
2022-08-04T02:29:21.196Z,6.63
2022-08-04T02:31:58.967Z,3.90
2022-08-04T02:34:31.979Z,4.93
2022-08-04T02:37:01.613Z,3.55
2022-08-04T02:39:42.420Z,3.78
2022-08-04T02:42:18.866Z,3.85
2022-08-04T02:44:51.551Z,5.35
2022-08-04T02:47:22.896Z,6.90
2022-08-04T02:49:53.259Z,5.30
2022-08-04T02:52:27.156Z,3.97
2022-08-04T02:54:57.480Z,4.13
2022-08-04T02:57:28.589Z,4.03
2022-08-04T03:00:08.167Z,4.38
2022-08-04T03:02:57.077Z,4.28
2022-08-04T03:05:31.854Z,6.78
2022-08-04T03:08:56.767Z,5.57
2022-08-04T03:11:49.748Z,5.22
2022-08-04T03:14:43.603Z,5.03
2022-08-04T03:17:52.873Z,4.03
2022-08-04T03:20:57.705Z,3.40
2022-08-04T03:23:47.980Z,5.05
2022-08-04T03:26:47.142Z,4.32
2022-08-04T03:30:00.857Z,4.53
2022-08-04T03:33:04.391Z,4.50
2022-08-04T03:36:12.149Z,4.57
2022-08-04T03:39:15.551Z,4.35
2022-08-04T03:42:18.100Z,4.03
2022-08-04T03:45:29.086Z,5.88
2022-08-04T03:48:24.382Z,5.15
2022-08-04T03:51:35.455Z,5.65
2022-08-04T03:54:48.171Z,3.88
2022-08-04T03:57:53.367Z,5.75
2022-08-04T04:00:22.546Z,7.80
2022-08-04T04:03:08.883Z,4.15
2022-08-04T04:06:16.544Z,4.10
2022-08-04T04:09:08.089Z,4.80
2022-08-04T04:12:15.999Z,3.80
2022-08-04T04:14:56.683Z,3.78
2022-08-04T04:18:15.981Z,3.72
2022-08-04T04:21:00.255Z,4.80
2022-08-04T04:24:02.905Z,4.00
2022-08-04T04:26:41.661Z,5.78
2022-08-04T04:29:56.362Z,4.10
2022-08-04T04:32:33.000Z,3.97
2022-08-04T04:35:16.570Z,4.15
2022-08-04T04:38:22.627Z,4.25
2022-08-04T04:41:04.653Z,4.28
2022-08-04T04:44:17.941Z,4.82
2022-08-04T04:46:54.024Z,4.43
2022-08-04T04:49:32.866Z,4.88
2022-08-04T04:52:09.300Z,4.65
2022-08-04T04:54:42.209Z,5.13
2022-08-04T04:57:16.004Z,5.78
2022-08-04T04:59:50.234Z,7.35
2022-08-04T05:03:08.718Z,3.50
2022-08-04T05:06:11.416Z,5.65
2022-08-04T05:09:10.654Z,4.72
2022-08-04T05:12:05.970Z,3.88
2022-08-04T05:14:55.069Z,4.28
2022-08-04T05:17:28.579Z,4.90
2022-08-04T05:20:02.784Z,4.20
2022-08-04T05:22:36.505Z,3.75
2022-08-04T05:25:15.315Z,4.70
2022-08-04T05:27:47.737Z,4.38
2022-08-04T05:30:16.419Z,4.10
2022-08-04T05:32:59.200Z,4.88
2022-08-04T05:35:52.845Z,4.30
2022-08-04T05:38:24.588Z,4.78
2022-08-04T05:40:53.603Z,5.88
2022-08-04T05:43:23.715Z,4.70
2022-08-04T05:45:53.539Z,4.97
2022-08-04T05:48:23.566Z,5.68
2022-08-04T05:50:54.025Z,7.43
2022-08-04T05:53:25.166Z,6.72
2022-08-04T05:55:59.076Z,4.90
2022-08-04T05:58:30.834Z,4.70
2022-08-04T06:01:00.930Z,5.20
2022-08-04T06:03:31.386Z,5.47
2022-08-04T06:06:01.192Z,6.45
2022-08-04T06:08:31.475Z,5.07
2022-08-04T06:11:06.148Z,6.72
2022-08-04T06:13:48.869Z,5.53
2022-08-04T06:16:28.737Z,5.30
2022-08-04T06:20:02.635Z,6.28
2022-08-04T06:21:55.486Z,6.13
2022-08-04T06:24:27.484Z,4.95
2022-08-04T06:26:56.846Z,4.93
2022-08-04T06:29:29.543Z,8.70
2022-08-04T06:32:28.612Z,5.30
2022-08-04T06:34:54.051Z,5.20
2022-08-04T06:37:41.508Z,5.60
2022-08-04T06:40:30.485Z,6.90
2022-08-04T06:43:01.873Z,5.47
2022-08-04T06:45:30.725Z,6.40
2022-08-04T06:48:01.240Z,6.15
2022-08-04T06:51:32.926Z,6.68
2022-08-04T06:53:20.239Z,5.68
2022-08-04T06:55:50.210Z,5.97
2022-08-04T06:58:20.187Z,6.20
2022-08-04T07:00:49.629Z,6.90
2022-08-04T07:03:20.014Z,5.90
2022-08-04T07:05:50.706Z,6.20
2022-08-04T07:08:19.815Z,6.35
2022-08-04T07:10:48.337Z,7.28
2022-08-04T07:13:18.150Z,6.32
2022-08-04T07:15:48.517Z,6.07
2022-08-04T07:18:17.489Z,7.32
2022-08-04T07:20:47.090Z,6.72
2022-08-04T07:23:19.917Z,6.10
2022-08-04T07:26:00.149Z,6.55
2022-08-04T07:28:41.501Z,7.82
2022-08-04T07:31:31.825Z,5.70
2022-08-04T07:34:20.824Z,5.65
2022-08-04T07:36:55.018Z,7.50
2022-08-04T07:39:29.349Z,7.82
2022-08-04T07:42:01.702Z,8.52
2022-08-04T07:44:31.201Z,7.35
2022-08-04T07:47:00.080Z,5.97
2022-08-04T07:49:55.275Z,5.90
2022-08-04T07:52:17.355Z,9.98
2022-08-04T07:54:47.820Z,7.00
2022-08-04T07:57:20.697Z,4.85
2022-08-04T08:00:08.826Z,6.40
2022-08-04T08:02:52.473Z,5.28
2022-08-04T08:05:21.420Z,8.18
2022-08-04T08:07:54.802Z,5.40
2022-08-04T08:10:25.232Z,5.82
2022-08-04T08:12:54.336Z,5.57
2022-08-04T08:15:26.628Z,5.68
2022-08-04T08:17:58.641Z,5.78
2022-08-04T08:20:30.509Z,5.78
2022-08-04T08:22:59.756Z,6.32
2022-08-04T08:25:32.302Z,8.80
2022-08-04T08:28:01.064Z,6.90
2022-08-04T08:30:31.238Z,7.47
2022-08-04T08:33:06.221Z,6.95
2022-08-04T08:35:52.899Z,8.25
2022-08-04T08:38:30.045Z,7.32
2022-08-04T08:41:15.173Z,6.50
2022-08-04T08:44:07.464Z,6.07
2022-08-04T08:46:59.438Z,7.57
2022-08-04T08:50:04.102Z,7.60
2022-08-04T08:53:01.003Z,7.93
2022-08-04T08:55:41.839Z,6.95
2022-08-04T08:58:32.731Z,10.90
2022-08-04T09:01:11.451Z,7.25
2022-08-04T09:04:23.988Z,7.20
2022-08-04T09:07:11.404Z,7.90
2022-08-04T09:09:58.375Z,8.60
2022-08-04T09:12:33.469Z,8.25
2022-08-04T09:15:07.521Z,7.68
2022-08-04T09:17:43.100Z,8.43
2022-08-04T09:20:17.848Z,8.80
2022-08-04T09:22:51.800Z,9.00
2022-08-04T09:25:25.345Z,8.90
2022-08-04T09:28:09.601Z,9.20
2022-08-04T09:30:44.239Z,8.77
2022-08-04T09:33:44.490Z,8.43
2022-08-04T09:36:25.897Z,8.88
2022-08-04T09:39:05.196Z,8.55
2022-08-04T09:41:49.521Z,8.95
2022-08-04T09:44:49.973Z,8.57
2022-08-04T09:47:40.270Z,8.65
2022-08-04T09:50:27.697Z,8.95
2022-08-04T09:53:04.276Z,8.18
2022-08-04T09:55:54.393Z,8.60
2022-08-04T09:58:39.492Z,9.18
2022-08-04T10:01:12.802Z,8.88
2022-08-04T10:03:46.331Z,8.82
2022-08-04T10:06:37.785Z,10.65
2022-08-04T10:09:19.501Z,9.30
2022-08-04T10:12:04.875Z,9.30
2022-08-04T10:14:40.247Z,9.57
2022-08-04T10:17:28.665Z,7.70
2022-08-04T10:20:08.632Z,8.55
2022-08-04T10:22:55.897Z,8.68
2022-08-04T10:26:05.896Z,8.32
2022-08-04T10:28:36.824Z,8.27
2022-08-04T10:31:11.085Z,8.55
2022-08-04T10:33:44.907Z,9.05
2022-08-04T10:36:19.184Z,8.35
2022-08-04T10:38:57.680Z,8.32
2022-08-04T10:41:34.149Z,8.77
2022-08-04T10:44:16.097Z,7.97
2022-08-04T10:46:51.056Z,8.48
2022-08-04T10:49:25.231Z,8.35
2022-08-04T10:52:05.233Z,8.52
2022-08-04T10:54:45.280Z,8.57
2022-08-04T10:57:20.226Z,8.18
2022-08-04T11:00:00.627Z,7.78
2022-08-04T11:02:39.419Z,10.57
2022-08-04T11:05:16.681Z,8.05
2022-08-04T11:07:50.584Z,8.27
2022-08-04T11:10:24.906Z,9.10
2022-08-04T11:13:01.931Z,7.82
2022-08-04T11:15:35.556Z,8.98
2022-08-04T11:18:16.180Z,8.10
2022-08-04T11:20:53.882Z,8.30
2022-08-04T11:23:28.764Z,8.00
2022-08-04T11:26:04.885Z,9.20
2022-08-04T11:28:43.868Z,8.57
2022-08-04T11:31:15.418Z,8.43
2022-08-04T11:33:51.338Z,8.95
2022-08-04T11:36:27.783Z,8.77
2022-08-04T11:39:07.692Z,8.00
2022-08-04T11:41:49.731Z,8.68
2022-08-04T11:44:25.343Z,8.77
2022-08-04T11:46:58.201Z,9.05
2022-08-04T11:49:56.443Z,9.15
2022-08-04T11:52:23.079Z,9.82
2022-08-04T11:54:54.819Z,10.73
2022-08-04T11:57:25.627Z,9.80
2022-08-04T12:00:10.033Z,10.82
2022-08-04T12:03:20.063Z,10.18
2022-08-04T12:05:56.133Z,11.55
2022-08-04T12:08:37.448Z,9.70
2022-08-04T12:11:26.207Z,10.40
2022-08-04T12:14:05.009Z,10.73
2022-08-04T12:16:43.419Z,9.10
2022-08-04T12:19:18.793Z,9.50
2022-08-04T12:21:53.180Z,8.98
2022-08-04T12:24:30.418Z,9.02
2022-08-04T12:27:10.019Z,8.68
2022-08-04T12:29:41.466Z,8.65
2022-08-04T12:32:21.868Z,13.38
2022-08-04T12:35:01.040Z,8.82
2022-08-04T12:37:39.893Z,9.60
2022-08-04T12:40:27.528Z,9.70
2022-08-04T12:43:07.145Z,9.40
2022-08-04T12:45:36.024Z,9.27
2022-08-04T12:48:07.491Z,12.38
2022-08-04T12:50:36.513Z,9.63
2022-08-04T12:53:19.568Z,9.40
2022-08-04T12:56:02.489Z,9.38
2022-08-04T12:58:43.118Z,9.73
2022-08-04T13:02:08.645Z,9.52
2022-08-04T13:04:12.659Z,9.52
2022-08-04T13:06:43.278Z,9.75
2022-08-04T13:09:17.492Z,9.77
2022-08-04T13:11:51.783Z,9.80
2022-08-04T13:14:27.945Z,8.95
2022-08-04T13:17:01.183Z,12.45
2022-08-04T13:19:30.852Z,9.05
2022-08-04T13:22:03.361Z,10.35
2022-08-04T13:24:56.858Z,10.23
2022-08-04T13:27:26.948Z,9.80
2022-08-04T13:30:03.523Z,9.88
2022-08-04T13:32:33.393Z,9.23
2022-08-04T13:35:04.735Z,9.05
2022-08-04T13:37:36.090Z,9.15
2022-08-04T13:40:06.908Z,9.10
2022-08-04T13:42:37.456Z,8.98
2022-08-04T13:45:09.772Z,8.90
2022-08-04T13:47:40.449Z,8.73
2022-08-04T13:50:16.484Z,8.18
2022-08-04T13:52:46.350Z,8.98
2022-08-04T13:55:26.138Z,8.45
2022-08-04T13:58:06.377Z,9.13
2022-08-04T14:00:46.361Z,9.75
2022-08-04T14:03:24.769Z,9.43
2022-08-04T14:06:15.839Z,9.80
2022-08-04T14:08:51.820Z,8.88
2022-08-04T14:12:09.717Z,9.32
2022-08-04T14:14:18.176Z,9.02
2022-08-04T14:17:05.887Z,9.77
2022-08-04T14:19:55.065Z,8.60
2022-08-04T14:22:31.514Z,8.48
2022-08-04T14:25:00.393Z,9.20
2022-08-04T14:27:30.552Z,8.68
2022-08-04T14:29:58.856Z,8.85
2022-08-04T14:32:28.761Z,9.35
2022-08-04T14:34:58.724Z,9.82
2022-08-04T14:37:48.271Z,9.57
2022-08-04T14:40:30.715Z,9.65
2022-08-04T14:42:59.840Z,10.15
2022-08-04T14:45:33.176Z,10.07
2022-08-04T14:48:03.771Z,9.73
2022-08-04T14:50:38.026Z,9.88
2022-08-04T14:53:08.605Z,9.52
2022-08-04T14:55:37.386Z,9.35
2022-08-04T14:58:36.399Z,12.68
2022-08-04T15:00:57.288Z,10.88
2022-08-04T15:03:27.541Z,10.45
2022-08-04T15:06:04.330Z,10.00
2022-08-04T15:08:37.565Z,9.85
2022-08-04T15:11:05.843Z,9.65
2022-08-04T15:13:34.979Z,9.23
2022-08-04T15:16:07.862Z,9.57
2022-08-04T15:18:39.322Z,8.98
2022-08-04T15:21:08.968Z,9.05
2022-08-04T15:23:39.371Z,8.98
2022-08-04T15:26:12.412Z,9.50
2022-08-04T15:28:46.539Z,8.50
2022-08-04T15:32:03.800Z,9.50
2022-08-04T15:34:08.058Z,8.88
2022-08-04T15:36:57.058Z,8.68
2022-08-04T15:39:37.099Z,8.52
2022-08-04T15:42:20.961Z,9.18
2022-08-04T15:45:17.607Z,10.35
2022-08-04T15:48:20.015Z,9.25
2022-08-04T15:51:05.393Z,9.05
2022-08-04T15:54:27.262Z,8.75
2022-08-04T15:57:02.375Z,9.45
2022-08-04T16:00:08.785Z,8.60
2022-08-04T16:02:44.409Z,7.78
2022-08-04T16:05:36.918Z,9.32
2022-08-04T16:08:17.602Z,8.82
2022-08-04T16:10:50.839Z,8.90
2022-08-04T16:13:21.478Z,10.68
2022-08-04T16:15:54.828Z,9.88
2022-08-04T16:18:39.928Z,10.02
2022-08-04T16:21:18.904Z,8.45
2022-08-04T16:24:26.721Z,8.98
2022-08-04T16:26:58.223Z,9.80
2022-08-04T16:29:38.077Z,9.00
2022-08-04T16:32:12.034Z,8.75
2022-08-04T16:34:53.800Z,9.77
2022-08-04T16:37:29.081Z,9.80
2022-08-04T16:40:34.037Z,9.07
2022-08-04T16:43:07.277Z,9.10
2022-08-04T16:45:50.891Z,8.95
2022-08-04T16:48:20.294Z,9.73
2022-08-04T16:50:56.218Z,9.77
2022-08-04T16:53:52.324Z,10.18
2022-08-04T16:56:18.766Z,9.70
2022-08-04T16:58:54.411Z,9.30
2022-08-04T17:01:32.579Z,19.17
2022-08-04T17:04:06.206Z,10.18
2022-08-04T17:06:36.662Z,10.07
2022-08-04T17:09:07.429Z,10.95
2022-08-04T17:11:35.728Z,9.77
2022-08-04T17:14:06.421Z,9.77
2022-08-04T17:16:36.720Z,9.25
2022-08-04T17:19:06.806Z,10.27
2022-08-04T17:21:49.419Z,9.90
2022-08-04T17:24:18.296Z,10.38
2022-08-04T17:26:53.472Z,10.23
2022-08-04T17:29:44.171Z,9.57
2022-08-04T17:32:18.763Z,9.85
2022-08-04T17:34:50.604Z,9.35
2022-08-04T17:40:10.223Z,9.30
2022-08-04T17:42:41.458Z,9.43
2022-08-04T17:48:03.041Z,9.10
2022-08-04T17:50:35.961Z,9.52
2022-08-04T17:53:11.298Z,9.85
2022-08-04T17:55:46.876Z,10.30
2022-08-04T17:58:21.384Z,9.77
2022-08-04T18:01:23.161Z,9.98
2022-08-04T18:03:53.179Z,9.93
2022-08-04T18:06:22.644Z,10.02
2022-08-04T18:11:43.085Z,10.48
2022-08-04T18:14:15.319Z,8.75
2022-08-04T18:16:48.045Z,9.52
2022-08-04T18:19:19.151Z,13.98
2022-08-04T18:22:00.054Z,8.57
2022-08-04T18:24:34.658Z,8.63
2022-08-04T18:30:33.664Z,8.50
2022-08-04T18:33:24.437Z,8.77
2022-08-04T18:36:31.607Z,8.73
2022-08-04T18:41:10.526Z,8.27
2022-08-04T18:43:40.918Z,7.78
2022-08-04T18:46:14.853Z,8.30
2022-08-04T18:48:52.472Z,8.20
2022-08-04T18:51:23.786Z,8.25
2022-08-04T18:53:55.093Z,7.53
2022-08-04T18:56:29.295Z,8.45
2022-08-04T18:59:00.051Z,7.90
2022-08-04T19:01:30.452Z,8.23
2022-08-04T19:04:33.184Z,7.53
2022-08-04T19:07:23.482Z,7.15
2022-08-04T19:09:57.723Z,7.55
2022-08-04T19:12:28.266Z,13.10
2022-08-04T19:15:08.962Z,8.20
2022-08-04T19:17:53.569Z,7.57
2022-08-04T19:20:27.384Z,8.38
2022-08-04T19:24:26.521Z,8.13
2022-08-04T19:26:02.869Z,8.07
2022-08-04T19:28:35.994Z,8.25
2022-08-04T19:31:05.813Z,8.63
2022-08-04T19:33:58.590Z,9.20
2022-08-04T19:36:27.787Z,8.55
2022-08-04T19:38:58.061Z,8.45
2022-08-04T19:41:27.120Z,7.85
2022-08-04T19:43:55.730Z,7.78
2022-08-04T19:46:25.710Z,7.85
2022-08-04T19:48:59.707Z,8.00
2022-08-04T19:51:32.683Z,7.88
2022-08-04T19:54:02.292Z,8.55
2022-08-04T19:56:40.551Z,8.98
2022-08-04T19:59:10.083Z,8.23
2022-08-04T20:01:44.035Z,8.85
2022-08-04T20:04:13.841Z,8.88
2022-08-04T20:06:44.249Z,10.20
2022-08-04T20:09:25.123Z,8.80
2022-08-04T20:11:55.610Z,10.35
2022-08-04T20:14:32.453Z,8.93
2022-08-04T20:17:02.965Z,9.27
2022-08-04T20:19:31.589Z,8.82
2022-08-04T20:22:02.591Z,8.38
2022-08-04T20:24:38.753Z,9.02
2022-08-04T20:27:14.753Z,8.73
2022-08-04T20:29:48.526Z,8.98
2022-08-04T20:32:19.999Z,9.25
2022-08-04T20:34:50.384Z,8.50
2022-08-04T20:37:23.209Z,9.05
2022-08-04T20:39:55.577Z,8.32
2022-08-04T20:42:27.537Z,8.32
2022-08-04T20:45:02.512Z,9.13
2022-08-04T20:47:33.686Z,7.75
2022-08-04T20:50:05.527Z,7.72
2022-08-04T20:52:39.633Z,7.97
2022-08-04T20:55:09.595Z,8.25
2022-08-04T20:57:49.591Z,7.45
2022-08-04T21:00:26.412Z,7.60
2022-08-04T21:02:58.933Z,7.05
2022-08-04T21:05:27.329Z,7.15
2022-08-04T21:07:58.038Z,7.63
2022-08-04T21:10:27.758Z,7.05
2022-08-04T21:12:56.325Z,7.07
2022-08-04T21:15:50.720Z,6.63
2022-08-04T21:18:14.870Z,6.95
2022-08-04T21:20:48.008Z,7.20
2022-08-04T21:23:21.073Z,6.78
2022-08-04T21:25:58.074Z,7.15
2022-08-04T21:28:26.356Z,6.65
2022-08-04T21:30:55.705Z,6.40
2022-08-04T21:33:49.921Z,6.55
2022-08-04T21:36:13.561Z,6.50
2022-08-04T21:38:51.704Z,8.20
2022-08-04T21:41:24.811Z,6.50
2022-08-04T21:43:55.844Z,6.03
2022-08-04T21:46:24.335Z,7.80
2022-08-04T21:48:52.785Z,6.78
2022-08-04T21:51:58.011Z,6.55
2022-08-04T21:54:16.911Z,6.55
2022-08-04T21:56:51.553Z,6.40
2022-08-04T21:59:23.790Z,6.30
2022-08-04T22:02:00.509Z,7.20
2022-08-04T22:04:29.495Z,6.38
2022-08-04T22:06:57.837Z,6.55
2022-08-04T22:09:38.513Z,8.40
2022-08-04T22:12:11.601Z,7.07
2022-08-04T22:14:40.292Z,6.43
2022-08-04T22:17:13.675Z,6.95
2022-08-04T22:19:55.316Z,7.03
2022-08-04T22:22:27.032Z,6.65
2022-08-04T22:25:12.313Z,7.35
2022-08-04T22:28:01.592Z,6.65
2022-08-04T22:30:36.763Z,6.57
2022-08-04T22:33:08.007Z,6.85
2022-08-04T22:35:49.072Z,6.80
2022-08-04T22:38:28.099Z,6.55
2022-08-04T22:41:08.734Z,6.30
2022-08-04T22:43:37.698Z,7.07
2022-08-04T22:46:08.267Z,6.80
2022-08-04T22:48:38.107Z,7.10
2022-08-04T22:51:07.691Z,7.15
2022-08-04T22:53:36.951Z,6.90
2022-08-04T22:56:10.560Z,6.43
2022-08-04T22:58:45.015Z,6.60
2022-08-04T23:01:15.743Z,6.47
2022-08-04T23:03:50.902Z,7.22
2022-08-04T23:06:25.042Z,7.90
2022-08-04T23:08:53.916Z,7.63
2022-08-04T23:11:23.485Z,6.82
2022-08-04T23:13:51.720Z,7.28
2022-08-04T23:16:21.315Z,6.78
2022-08-04T23:18:53.031Z,7.10
2022-08-04T23:21:23.981Z,7.13
2022-08-04T23:24:02.487Z,7.43
2022-08-04T23:26:32.826Z,7.25
2022-08-04T23:29:03.686Z,7.35
2022-08-04T23:31:40.371Z,7.10
2022-08-04T23:34:12.252Z,7.30
2022-08-04T23:36:41.396Z,7.15
2022-08-04T23:39:12.116Z,7.63
2022-08-04T23:41:53.238Z,7.60
2022-08-04T23:44:24.702Z,7.38
2022-08-04T23:46:59.799Z,6.95
2022-08-04T23:49:44.214Z,7.30
2022-08-04T23:52:27.593Z,7.20
2022-08-04T23:54:59.773Z,7.38
2022-08-04T23:57:31.289Z,7.32
